メインページ
METAR-TAF:

METAR-TAF

空港 :

ベン・グリオン国際空港

テルアビブ / ベン・グリオン, イスラエル

緯度: 32-00N, 経度: 034-54E, 海抜: 40m

現時点の気象観測

当レポートは20分前の05:20(UTC)に作成
変向風 3kt
気温 23°C
湿度 61%
気圧 1014 hPa
視程10km以上
1,500メートル以下は雲なし、積乱雲なし

METAR: LLBG 220520Z VRB03KT CAVOK 23/15 Q1014 TEMPO 12010KT

時間: 08:40 (05:40 UTC)

予報

当レポートは31分前の05:09(UTC)に作成
予報は22日の 06時(UTC)から 23日の 06時(UTC)まで有効
東/北東の風 4kt
視程10km以上
1,500メートル以下は雲なし、積乱雲なし
22日の 06時(UTC)から 22日の 10時(UTC)まで一時的に
東/南東の風 12kt
22日の 10時(UTC)から 22日の 12時(UTC)まで徐々に
北/北西の風 7kt
22日の 16時(UTC)から 22日の 19時(UTC)まで徐々に
南東の風 5kt

TAF: LLBG 220509Z 2206/2306 06004KT CAVOK TEMPO 2206/2210 12012KT BECMG 2210/2212 34007KT BECMG 2216/2219 13005KT TX34/2211Z TN24/2304Z

4,000以上の空港の気象観測と天気予報(METAR報とTAF報)

利用可能な観測所は地図上に黄色い丸と赤い丸で示す。

丸の上にカーソルを重ねると観測所名を参照できる。

次にクリックすると気象観測と天気予報を参照できる。

マップの切り替え:黒色「×」印の緑ボタンをクリックして拡大、「-」印の緑ボタンをクリックして縮小、緑色の三角印をクリックして隣りの地図に切り替え


METAR-TAF: